Aviation Digital Data Service (ADDS)

Output produced by METARs form (1433 UTC 19 January 2019)
found at http://www.aviationweather.gov/metar/data/
 
METAR text: NGFU 191100Z 05008KT 9999 FEW019TCU BKN300 29/24 Q1009
Conditions at: NGFU (FUNAFUTI TUVALU , FJ) observed 1100 UTC 19 January 2019
Temperature: 29.0°C (84°F)
Dewpoint: 24.0°C (75°F) [RH = 74%]
Pressure (altimeter): 29.79 inches Hg (1009.0 mb)
Winds: from the NE (50 degrees) at 9 MPH (8 knots; 4.1 m/s)
Visibility: 6 or more miles (10+ km)
Ceiling: 30000 feet AGL
Clouds: few clouds at 1900 feet AGL
broken clouds at 30000 feet AGL
Weather: no significant weather observed at this time

METAR text: NGFU 191000Z VRB02KT 9999 FEW020 BKN310 29/24 Q1009
Conditions at: NGFU (FUNAFUTI TUVALU , FJ) observed 1000 UTC 19 January 2019
Temperature: 29.0°C (84°F)
Dewpoint: 24.0°C (75°F) [RH = 74%]
Pressure (altimeter): 29.79 inches Hg (1009.0 mb)
Winds: variable direction winds at 2 MPH (2 knots; 1.0 m/s)
Visibility: 6 or more miles (10+ km)
Ceiling: 31000 feet AGL
Clouds: few clouds at 2000 feet AGL
broken clouds at 31000 feet AGL
Weather: no significant weather observed at this time

METAR text: NGFU 190900Z 07005KT 9999 FEW017TCU SCT110 BKN310 29/25 Q1009
Conditions at: NGFU (FUNAFUTI TUVALU , FJ) observed 0900 UTC 19 January 2019
Temperature: 29.0°C (84°F)
Dewpoint: 25.0°C (77°F) [RH = 79%]
Pressure (altimeter): 29.79 inches Hg (1009.0 mb)
Winds: from the ENE (70 degrees) at 6 MPH (5 knots; 2.6 m/s)
Visibility: 6 or more miles (10+ km)
Ceiling: 31000 feet AGL
Clouds: few clouds at 1700 feet AGL
scattered clouds at 11000 feet AGL
broken clouds at 31000 feet AGL
Weather: no significant weather observed at this time

METAR text: NGFU 190800Z 05005KT 9999 SCT019 BKN110 29/24 Q1008
Conditions at: NGFU (FUNAFUTI TUVALU , FJ) observed 0800 UTC 19 January 2019
Temperature: 29.0°C (84°F)
Dewpoint: 24.0°C (75°F) [RH = 74%]
Pressure (altimeter): 29.76 inches Hg (1008.0 mb)
Winds: from the NE (50 degrees) at 6 MPH (5 knots; 2.6 m/s)
Visibility: 6 or more miles (10+ km)
Ceiling: 11000 feet AGL
Clouds: scattered clouds at 1900 feet AGL
broken clouds at 11000 feet AGL
Weather: no significant weather observed at this time

METAR text: NGFU 190700Z 02004KT 9999 FEW018TCU SCT019 BKN110 29/24 Q1007
Conditions at: NGFU (FUNAFUTI TUVALU , FJ) observed 0700 UTC 19 January 2019
Temperature: 29.0°C (84°F)
Dewpoint: 24.0°C (75°F) [RH = 74%]
Pressure (altimeter): 29.73 inches Hg (1007.0 mb)
Winds: from the NNE (20 degrees) at 5 MPH (4 knots; 2.1 m/s)
Visibility: 6 or more miles (10+ km)
Ceiling: 11000 feet AGL
Clouds: few clouds at 1800 feet AGL
scattered clouds at 1900 feet AGL
broken clouds at 11000 feet AGL
Weather: no significant weather observed at this time

METAR text: NGFU 190600Z 05004KT 9999 FEW019 SCT110 BKN310 30/24 Q1006
Conditions at: NGFU (FUNAFUTI TUVALU , FJ) observed 0600 UTC 19 January 2019
Temperature: 30.0°C (86°F)
Dewpoint: 24.0°C (75°F) [RH = 70%]
Pressure (altimeter): 29.70 inches Hg (1006.0 mb)
Winds: from the NE (50 degrees) at 5 MPH (4 knots; 2.1 m/s)
Visibility: 6 or more miles (10+ km)
Ceiling: 31000 feet AGL
Clouds: few clouds at 1900 feet AGL
scattered clouds at 11000 feet AGL
broken clouds at 31000 feet AGL
Weather: no significant weather observed at this time

METAR text: NGFU 190500Z 03006KT 9999 FEW018TCU BKN310 31/25 Q1005
Conditions at: NGFU (FUNAFUTI TUVALU , FJ) observed 0500 UTC 19 January 2019
Temperature: 31.0°C (88°F)
Dewpoint: 25.0°C (77°F) [RH = 71%]
Pressure (altimeter): 29.68 inches Hg (1005.0 mb)
Winds: from the NNE (30 degrees) at 7 MPH (6 knots; 3.1 m/s)
Visibility: 6 or more miles (10+ km)
Ceiling: 31000 feet AGL
Clouds: few clouds at 1800 feet AGL
broken clouds at 31000 feet AGL
Weather: no significant weather observed at this time

METAR text: NGFU 190300Z 05008KT 9999 SCT018TCU 32/25 Q1005
Conditions at: NGFU (FUNAFUTI TUVALU , FJ) observed 0300 UTC 19 January 2019
Temperature: 32.0°C (90°F)
Dewpoint: 25.0°C (77°F) [RH = 67%]
Pressure (altimeter): 29.68 inches Hg (1005.0 mb)
Winds: from the NE (50 degrees) at 9 MPH (8 knots; 4.1 m/s)
Visibility: 6 or more miles (10+ km)
Ceiling: at least 12,000 feet AGL
Clouds: scattered clouds at 1800 feet AGL
Weather: no significant weather observed at this time

METAR text: NGFU 190200Z 05004KT 9999 FEW019TCU BKN300 32/25 Q1006
Conditions at: NGFU (FUNAFUTI TUVALU , FJ) observed 0200 UTC 19 January 2019
Temperature: 32.0°C (90°F)
Dewpoint: 25.0°C (77°F) [RH = 67%]
Pressure (altimeter): 29.70 inches Hg (1006.0 mb)
Winds: from the NE (50 degrees) at 5 MPH (4 knots; 2.1 m/s)
Visibility: 6 or more miles (10+ km)
Ceiling: 30000 feet AGL
Clouds: few clouds at 1900 feet AGL
broken clouds at 30000 feet AGL
Weather: no significant weather observed at this time

METAR text: NGFU 190100Z 05007KT 9999 FEW021 BKN300 31/25 Q1006
Conditions at: NGFU (FUNAFUTI TUVALU , FJ) observed 0100 UTC 19 January 2019
Temperature: 31.0°C (88°F)
Dewpoint: 25.0°C (77°F) [RH = 71%]
Pressure (altimeter): 29.70 inches Hg (1006.0 mb)
Winds: from the NE (50 degrees) at 8 MPH (7 knots; 3.6 m/s)
Visibility: 6 or more miles (10+ km)
Ceiling: 30000 feet AGL
Clouds: few clouds at 2100 feet AGL
broken clouds at 30000 feet AGL
Weather: no significant weather observed at this time

METAR text: NGFU 190000Z 05006KT 9999 FEW021 BKN300 31/25 Q1007
Conditions at: NGFU (FUNAFUTI TUVALU , FJ) observed 0000 UTC 19 January 2019
Temperature: 31.0°C (88°F)
Dewpoint: 25.0°C (77°F) [RH = 71%]
Pressure (altimeter): 29.73 inches Hg (1007.0 mb)
Winds: from the NE (50 degrees) at 7 MPH (6 knots; 3.1 m/s)
Visibility: 6 or more miles (10+ km)
Ceiling: 30000 feet AGL
Clouds: few clouds at 2100 feet AGL
broken clouds at 30000 feet AGL
Weather: no significant weather observed at this time

METAR text: NGFU 182300Z 08006KT 9999 FEW021 BKN300 31/25 Q1007
Conditions at: NGFU (FUNAFUTI TUVALU , FJ) observed 2300 UTC 18 January 2019
Temperature: 31.0°C (88°F)
Dewpoint: 25.0°C (77°F) [RH = 71%]
Pressure (altimeter): 29.73 inches Hg (1007.0 mb)
Winds: from the E (80 degrees) at 7 MPH (6 knots; 3.1 m/s)
Visibility: 6 or more miles (10+ km)
Ceiling: 30000 feet AGL
Clouds: few clouds at 2100 feet AGL
broken clouds at 30000 feet AGL
Weather: no significant weather observed at this time

METAR text: NGFU 182100Z 08006KT 9999 FEW021 BKN300 31/26 Q1008
Conditions at: NGFU (FUNAFUTI TUVALU , FJ) observed 2100 UTC 18 January 2019
Temperature: 31.0°C (88°F)
Dewpoint: 26.0°C (79°F) [RH = 75%]
Pressure (altimeter): 29.76 inches Hg (1008.0 mb)
Winds: from the E (80 degrees) at 7 MPH (6 knots; 3.1 m/s)
Visibility: 6 or more miles (10+ km)
Ceiling: 30000 feet AGL
Clouds: few clouds at 2100 feet AGL
broken clouds at 30000 feet AGL
Weather: no significant weather observed at this time

METAR text: NGFU 181700Z 04009KT 9999 -SHRA SCT018TCU BKN100 27/26 Q1007
Conditions at: NGFU (FUNAFUTI TUVALU , FJ) observed 1700 UTC 18 January 2019
Temperature: 27.0°C (81°F)
Dewpoint: 26.0°C (79°F) [RH = 94%]
Pressure (altimeter): 29.73 inches Hg (1007.0 mb)
Winds: from the NE (40 degrees) at 10 MPH (9 knots; 4.6 m/s)
Visibility: 6 or more miles (10+ km)
Ceiling: 10000 feet AGL
Clouds: scattered clouds at 1800 feet AGL
broken clouds at 10000 feet AGL
Weather: -SHRA  (light rain showers)

METAR text: NGFU 181600Z 02006KT 9999 SCT018TCU BKN110 27/24 Q1006
Conditions at: NGFU (FUNAFUTI TUVALU , FJ) observed 1600 UTC 18 January 2019
Temperature: 27.0°C (81°F)
Dewpoint: 24.0°C (75°F) [RH = 84%]
Pressure (altimeter): 29.70 inches Hg (1006.0 mb)
Winds: from the NNE (20 degrees) at 7 MPH (6 knots; 3.1 m/s)
Visibility: 6 or more miles (10+ km)
Ceiling: 11000 feet AGL
Clouds: scattered clouds at 1800 feet AGL
broken clouds at 11000 feet AGL
Weather: no significant weather observed at this time

METAR text: NGFU 181500Z 01007KT 9999 SCT018TCU BKN110 28/25 Q1006
Conditions at: NGFU (FUNAFUTI TUVALU , FJ) observed 1500 UTC 18 January 2019
Temperature: 28.0°C (82°F)
Dewpoint: 25.0°C (77°F) [RH = 84%]
Pressure (altimeter): 29.70 inches Hg (1006.0 mb)
Winds: from the N (10 degrees) at 8 MPH (7 knots; 3.6 m/s)
Visibility: 6 or more miles (10+ km)
Ceiling: 11000 feet AGL
Clouds: scattered clouds at 1800 feet AGL
broken clouds at 11000 feet AGL
Weather: no significant weather observed at this time

METAR text: NGFU 181400Z 01006KT 9999 VCSH SCT018TCU BKN110 28/25 Q1007
Conditions at: NGFU (FUNAFUTI TUVALU , FJ) observed 1400 UTC 18 January 2019
Temperature: 28.0°C (82°F)
Dewpoint: 25.0°C (77°F) [RH = 84%]
Pressure (altimeter): 29.73 inches Hg (1007.0 mb)
Winds: from the N (10 degrees) at 7 MPH (6 knots; 3.1 m/s)
Visibility: 6 or more miles (10+ km)
Ceiling: 11000 feet AGL
Clouds: scattered clouds at 1800 feet AGL
broken clouds at 11000 feet AGL
Weather: VCSH  (showers in vicinity)

METAR text: NGFU 181300Z 02003KT 9999 FEW018 28/26 Q1007
Conditions at: NGFU (FUNAFUTI TUVALU , FJ) observed 1300 UTC 18 January 2019
Temperature: 28.0°C (82°F)
Dewpoint: 26.0°C (79°F) [RH = 89%]
Pressure (altimeter): 29.73 inches Hg (1007.0 mb)
Winds: from the NNE (20 degrees) at 3 MPH (3 knots; 1.5 m/s)
Visibility: 6 or more miles (10+ km)
Ceiling: at least 12,000 feet AGL
Clouds: few clouds at 1800 feet AGL
Weather: no significant weather observed at this time

METAR text: NGFU 181200Z 32006KT 9999 FEW017TCU BKN019 28/26 Q1008
Conditions at: NGFU (FUNAFUTI TUVALU , FJ) observed 1200 UTC 18 January 2019
Temperature: 28.0°C (82°F)
Dewpoint: 26.0°C (79°F) [RH = 89%]
Pressure (altimeter): 29.76 inches Hg (1008.0 mb)
Winds: from the NW (320 degrees) at 7 MPH (6 knots; 3.1 m/s)
Visibility: 6 or more miles (10+ km)
Ceiling: 1900 feet AGL
Clouds: few clouds at 1700 feet AGL
broken clouds at 1900 feet AGL
Weather: no significant weather observed at this time

METAR text: NGFU 181100Z 35003KT 9999 SCT017TCU BKN110 28/26 Q1009
Conditions at: NGFU (FUNAFUTI TUVALU , FJ) observed 1100 UTC 18 January 2019
Temperature: 28.0°C (82°F)
Dewpoint: 26.0°C (79°F) [RH = 89%]
Pressure (altimeter): 29.79 inches Hg (1009.0 mb)
Winds: from the N (350 degrees) at 3 MPH (3 knots; 1.5 m/s)
Visibility: 6 or more miles (10+ km)
Ceiling: 11000 feet AGL
Clouds: scattered clouds at 1700 feet AGL
broken clouds at 11000 feet AGL
Weather: no significant weather observed at this time

METAR text: NGFU 181000Z 33004KT 9999 FEW017TCU BKN100 29/25 Q1009
Conditions at: NGFU (FUNAFUTI TUVALU , FJ) observed 1000 UTC 18 January 2019
Temperature: 29.0°C (84°F)
Dewpoint: 25.0°C (77°F) [RH = 79%]
Pressure (altimeter): 29.79 inches Hg (1009.0 mb)
Winds: from the NNW (330 degrees) at 5 MPH (4 knots; 2.1 m/s)
Visibility: 6 or more miles (10+ km)
Ceiling: 10000 feet AGL
Clouds: few clouds at 1700 feet AGL
broken clouds at 10000 feet AGL
Weather: no significant weather observed at this time

METAR text: NGFU 180900Z 34005KT 9999 FEW017TCU BKN300 29/25 Q1009
Conditions at: NGFU (FUNAFUTI TUVALU , FJ) observed 0900 UTC 18 January 2019
Temperature: 29.0°C (84°F)
Dewpoint: 25.0°C (77°F) [RH = 79%]
Pressure (altimeter): 29.79 inches Hg (1009.0 mb)
Winds: from the NNW (340 degrees) at 6 MPH (5 knots; 2.6 m/s)
Visibility: 6 or more miles (10+ km)
Ceiling: 30000 feet AGL
Clouds: few clouds at 1700 feet AGL
broken clouds at 30000 feet AGL
Weather: no significant weather observed at this time

METAR text: NGFU 180800Z 34007KT 9999 FEW017TCU BKN300 28/24 Q1008
Conditions at: NGFU (FUNAFUTI TUVALU , FJ) observed 0800 UTC 18 January 2019
Temperature: 28.0°C (82°F)
Dewpoint: 24.0°C (75°F) [RH = 79%]
Pressure (altimeter): 29.76 inches Hg (1008.0 mb)
Winds: from the NNW (340 degrees) at 8 MPH (7 knots; 3.6 m/s)
Visibility: 6 or more miles (10+ km)
Ceiling: 30000 feet AGL
Clouds: few clouds at 1700 feet AGL
broken clouds at 30000 feet AGL
Weather: no significant weather observed at this time

METAR text: NGFU 180700Z 33004KT 9999 FEW015CB BKN300 28/24 Q1007 RMK CB TO W
Conditions at: NGFU (FUNAFUTI TUVALU , FJ) observed 0700 UTC 18 January 2019
Temperature: 28.0°C (82°F)
Dewpoint: 24.0°C (75°F) [RH = 79%]
Pressure (altimeter): 29.73 inches Hg (1007.0 mb)
Winds: from the NNW (330 degrees) at 5 MPH (4 knots; 2.1 m/s)
Visibility: 6 or more miles (10+ km)
Ceiling: 30000 feet AGL
Clouds: few clouds at 1500 feet AGL
broken clouds at 30000 feet AGL
Weather: no significant weather observed at this time

METAR text: NGFU 180600Z 35005KT 9999 VCSH FEW015CB FEW017TCU SCT025 OVC100 28/25 Q1007 RMK CB TO W
Conditions at: NGFU (FUNAFUTI TUVALU , FJ) observed 0600 UTC 18 January 2019
Temperature: 28.0°C (82°F)
Dewpoint: 25.0°C (77°F) [RH = 84%]
Pressure (altimeter): 29.73 inches Hg (1007.0 mb)
Winds: from the N (350 degrees) at 6 MPH (5 knots; 2.6 m/s)
Visibility: 6 or more miles (10+ km)
Ceiling: 10000 feet AGL
Clouds: few clouds at 1500 feet AGL
few clouds at 1700 feet AGL
scattered clouds at 2500 feet AGL
overcast cloud deck at 10000 feet AGL
Weather: VCSH  (showers in vicinity)

METAR text: NGFU 180500Z 01003KT 9999 VCSH FEW015CB FEW017TCU BKN100 27/26 Q1006 RERA RMK CB TO W
Conditions at: NGFU (FUNAFUTI TUVALU , FJ) observed 0500 UTC 18 January 2019
Temperature: 27.0°C (81°F)
Dewpoint: 26.0°C (79°F) [RH = 94%]
Pressure (altimeter): 29.70 inches Hg (1006.0 mb)
Winds: from the N (10 degrees) at 3 MPH (3 knots; 1.5 m/s)
Visibility: 6 or more miles (10+ km)
Ceiling: 10000 feet AGL
Clouds: few clouds at 1500 feet AGL
few clouds at 1700 feet AGL
broken clouds at 10000 feet AGL
Weather: VCSH  (showers in vicinity)

Forecast for: NGFU (FUNAFUTI TUVALU , FJ)
Text: TAF NGFU 191104Z 1912/2012 04006KT 9999 -SHRA FEW020 BKN100
Forecast period: 1200 UTC 19 January 2019 to 1200 UTC 20 January 2019
Forecast type: FROM: standard forecast or significant change
Winds: from the NE (40 degrees) at 7 MPH (6 knots; 3.1 m/s)
Visibility: 6 or more miles 10+ km)
Ceiling: 10000 feet AGL
Clouds: few clouds at 2000 feet AGL
broken clouds at 10000 feet AGL
Weather: -SHRA  (light rain showers)
Text: PROB40
Forecast period: 1200 UTC 19 January 2019 to 0000 UTC 20 January 2019
Forecast type: TEMPORARY: The following changes expected for less than half the time period
Visibility: 1.86 miles (2.99 km)
Ceiling: 1500 feet AGL
Clouds: broken clouds at 1500 feet AGL
few clouds at 1800 feet AGL
Weather: TSRA  (rain associated with thunderstorm(s))